sensor_id;sensor_type;location;lat;lon;timestamp;pressure;altitude;pressure_sealevel;temperature;humidity
23619;BME280;18207;32.078;34.818;2023-04-08T00:00:07;100900.97;;;27.90;35.90
23619;BME280;18207;32.078;34.818;2023-04-08T00:02:37;100906.19;;;27.88;36.00
23619;BME280;18207;32.078;34.818;2023-04-08T00:05:08;100893.25;;;27.87;36.09
23619;BME280;18207;32.078;34.818;2023-04-08T00:07:40;100907.75;;;27.85;35.95
23619;BME280;18207;32.078;34.818;2023-04-08T00:10:11;100914.63;;;27.84;36.09
23619;BME280;18207;32.078;34.818;2023-04-08T00:12:41;100904.88;;;27.82;36.11
23619;BME280;18207;32.078;34.818;2023-04-08T00:15:11;100897.22;;;27.82;35.87
23619;BME280;18207;32.078;34.818;2023-04-08T00:17:42;100888.31;;;27.80;36.42
23619;BME280;18207;32.078;34.818;2023-04-08T00:20:12;100885.03;;;27.78;36.21
23619;BME280;18207;32.078;34.818;2023-04-08T00:22:47;100877.75;;;27.77;36.29
23619;BME280;18207;32.078;34.818;2023-04-08T00:25:17;100882.97;;;27.75;36.28
23619;BME280;18207;32.078;34.818;2023-04-08T00:27:52;100885.38;;;27.74;36.49
23619;BME280;18207;32.078;34.818;2023-04-08T00:30:22;100877.28;;;27.72;36.37
23619;BME280;18207;32.078;34.818;2023-04-08T00:32:54;100865.19;;;27.72;36.50
23619;BME280;18207;32.078;34.818;2023-04-08T00:35:25;100857.47;;;27.69;36.39
23619;BME280;18207;32.078;34.818;2023-04-08T00:37:57;100853.84;;;27.68;36.63
23619;BME280;18207;32.078;34.818;2023-04-08T00:40:28;100869.16;;;27.67;36.42
23619;BME280;18207;32.078;34.818;2023-04-08T00:42:58;100866.72;;;27.66;36.36
23619;BME280;18207;32.078;34.818;2023-04-08T00:45:29;100886.03;;;27.64;36.40
23619;BME280;18207;32.078;34.818;2023-04-08T00:48:00;100891.22;;;27.62;36.39
23619;BME280;18207;32.078;34.818;2023-04-08T00:50:32;100893.59;;;27.60;36.41
23619;BME280;18207;32.078;34.818;2023-04-08T00:53:04;100891.97;;;27.59;36.30
23619;BME280;18207;32.078;34.818;2023-04-08T00:55:35;100892.75;;;27.56;36.60
23619;BME280;18207;32.078;34.818;2023-04-08T00:58:05;100892.31;;;27.54;36.63
23619;BME280;18207;32.078;34.818;2023-04-08T01:00:45;100895.94;;;27.54;36.73
23619;BME280;18207;32.078;34.818;2023-04-08T01:03:24;100890.66;;;27.53;36.54
23619;BME280;18207;32.078;34.818;2023-04-08T01:06:06;100883.41;;;27.52;36.82
23619;BME280;18207;32.078;34.818;2023-04-08T01:08:42;100891.41;;;27.50;36.47
23619;BME280;18207;32.078;34.818;2023-04-08T01:11:14;100889.78;;;27.49;36.73
23619;BME280;18207;32.078;34.818;2023-04-08T01:13:45;100889.78;;;27.49;36.77
23619;BME280;18207;32.078;34.818;2023-04-08T01:16:18;100890.19;;;27.47;36.75
23619;BME280;18207;32.078;34.818;2023-04-08T01:18:51;100888.53;;;27.46;36.84
23619;BME280;18207;32.078;34.818;2023-04-08T01:21:23;100893.38;;;27.46;36.78
23619;BME280;18207;32.078;34.818;2023-04-08T01:24:17;100884.03;;;27.42;36.69
23619;BME280;18207;32.078;34.818;2023-04-08T01:26:50;100877.16;;;27.39;36.71
23619;BME280;18207;32.078;34.818;2023-04-08T01:29:22;100880.31;;;27.38;36.57
23619;BME280;18207;32.078;34.818;2023-04-08T01:31:54;100873.44;;;27.35;36.77
23619;BME280;18207;32.078;34.818;2023-04-08T01:34:26;100877.84;;;27.33;36.49
23619;BME280;18207;32.078;34.818;2023-04-08T01:36:58;100884.63;;;27.28;36.68
23619;BME280;18207;32.078;34.818;2023-04-08T01:39:30;100878.91;;;27.25;36.60
23619;BME280;18207;32.078;34.818;2023-04-08T01:42:04;100862.34;;;27.23;36.50
23619;BME280;18207;32.078;34.818;2023-04-08T01:44:36;100867.13;;;27.19;36.59
23619;BME280;18207;32.078;34.818;2023-04-08T01:47:07;100858.63;;;27.16;36.57
23619;BME280;18207;32.078;34.818;2023-04-08T01:49:39;100863.38;;;27.12;36.56
23619;BME280;18207;32.078;34.818;2023-04-08T01:52:12;100860.50;;;27.08;36.64
23619;BME280;18207;32.078;34.818;2023-04-08T01:54:43;100851.97;;;27.05;36.39
23619;BME280;18207;32.078;34.818;2023-04-08T01:57:25;100851.03;;;27.01;36.81
23619;BME280;18207;32.078;34.818;2023-04-08T02:00:04;100855.44;;;26.98;36.81
23619;BME280;18207;32.078;34.818;2023-04-08T02:02:37;100851.38;;;26.96;36.87
23619;BME280;18207;32.078;34.818;2023-04-08T02:05:08;100846.47;;;26.93;37.06
23619;BME280;18207;32.078;34.818;2023-04-08T02:07:39;100851.28;;;26.92;36.92
23619;BME280;18207;32.078;34.818;2023-04-08T02:10:10;100846.03;;;26.91;36.81
23619;BME280;18207;32.078;34.818;2023-04-08T02:12:43;100841.56;;;26.90;37.00
23619;BME280;18207;32.078;34.818;2023-04-08T02:15:13;100838.75;;;26.90;37.08
23619;BME280;18207;32.078;34.818;2023-04-08T02:17:49;100837.97;;;26.89;36.98
23619;BME280;18207;32.078;34.818;2023-04-08T02:20:26;100839.94;;;26.89;37.38
23619;BME280;18207;32.078;34.818;2023-04-08T02:23:08;100843.59;;;26.89;36.83
23619;BME280;18207;32.078;34.818;2023-04-08T02:25:44;100848.41;;;26.89;37.19
23619;BME280;18207;32.078;34.818;2023-04-08T02:28:18;100863.69;;;26.88;36.93
23619;BME280;18207;32.078;34.818;2023-04-08T02:30:51;100868.53;;;26.87;37.16
23619;BME280;18207;32.078;34.818;2023-04-08T02:33:24;100867.75;;;26.87;37.38
23619;BME280;18207;32.078;34.818;2023-04-08T02:35:56;100881.47;;;26.88;37.17
23619;BME280;18207;32.078;34.818;2023-04-08T02:38:26;100877.81;;;26.88;37.24
23619;BME280;18207;32.078;34.818;2023-04-08T02:40:58;100883.44;;;26.88;37.34
23619;BME280;18207;32.078;34.818;2023-04-08T02:43:30;100883.44;;;26.88;37.34
23619;BME280;18207;32.078;34.818;2023-04-08T02:46:01;100878.63;;;26.88;37.33
23619;BME280;18207;32.078;34.818;2023-04-08T02:48:32;100881.47;;;26.88;37.33
23619;BME280;18207;32.078;34.818;2023-04-08T02:51:03;100885.47;;;26.87;37.35
23619;BME280;18207;32.078;34.818;2023-04-08T02:53:33;100879.81;;;26.87;37.30
23619;BME280;18207;32.078;34.818;2023-04-08T02:56:04;100881.84;;;26.87;37.11
23619;BME280;18207;32.078;34.818;2023-04-08T02:58:38;100873.72;;;26.85;37.45
23619;BME280;18207;32.078;34.818;2023-04-08T03:01:08;100875.75;;;26.85;36.89
23619;BME280;18207;32.078;34.818;2023-04-08T03:03:38;100885.41;;;26.84;36.97
23619;BME280;18207;32.078;34.818;2023-04-08T03:06:09;100884.56;;;26.83;37.11
23619;BME280;18207;32.078;34.818;2023-04-08T03:08:39;100882.13;;;26.82;37.26
23619;BME280;18207;32.078;34.818;2023-04-08T03:11:10;100874.84;;;26.81;36.88
23619;BME280;18207;32.078;34.818;2023-04-08T03:13:42;100871.25;;;26.81;36.48
23619;BME280;18207;32.078;34.818;2023-04-08T03:16:13;100867.13;;;26.78;36.96
23619;BME280;18207;32.078;34.818;2023-04-08T03:18:44;100863.91;;;26.76;36.73
23619;BME280;18207;32.078;34.818;2023-04-08T03:21:31;100872.72;;;26.75;36.86
23619;BME280;18207;32.078;34.818;2023-04-08T03:24:01;100875.94;;;26.73;36.86
23619;BME280;18207;32.078;34.818;2023-04-08T03:26:32;100875.47;;;26.71;36.90
23619;BME280;18207;32.078;34.818;2023-04-08T03:29:04;100875.03;;;26.69;36.86
23619;BME280;18207;32.078;34.818;2023-04-08T03:31:37;100870.56;;;26.68;36.73
23619;BME280;18207;32.078;34.818;2023-04-08T03:34:07;100869.31;;;26.66;36.49
23619;BME280;18207;32.078;34.818;2023-04-08T03:36:38;100881.00;;;26.64;36.83
23619;BME280;18207;32.078;34.818;2023-04-08T03:39:08;100868.47;;;26.62;36.74
23619;BME280;18207;32.078;34.818;2023-04-08T03:41:39;100865.63;;;26.62;36.69
23619;BME280;18207;32.078;34.818;2023-04-08T03:44:10;100877.28;;;26.60;36.69
23619;BME280;18207;32.078;34.818;2023-04-08T03:46:40;100884.47;;;26.58;36.56
23619;BME280;18207;32.078;34.818;2023-04-08T03:49:11;100890.50;;;26.56;36.75
23619;BME280;18207;32.078;34.818;2023-04-08T03:51:41;100910.22;;;26.56;36.36
23619;BME280;18207;32.078;34.818;2023-04-08T03:54:11;100910.59;;;26.55;36.66
23619;BME280;18207;32.078;34.818;2023-04-08T03:56:42;100916.59;;;26.53;36.49
23619;BME280;18207;32.078;34.818;2023-04-08T03:59:14;100916.59;;;26.53;36.59
23619;BME280;18207;32.078;34.818;2023-04-08T04:01:45;100911.34;;;26.52;36.28
23619;BME280;18207;32.078;34.818;2023-04-08T04:04:15;100907.25;;;26.49;36.35
23619;BME280;18207;32.078;34.818;2023-04-08T04:06:46;100919.72;;;26.48;36.35
23619;BME280;18207;32.078;34.818;2023-04-08T04:09:17;100922.91;;;26.47;36.58
23619;BME280;18207;32.078;34.818;2023-04-08T04:12:00;100943.03;;;26.45;36.61
23619;BME280;18207;32.078;34.818;2023-04-08T04:14:32;100942.19;;;26.45;36.49
23619;BME280;18207;32.078;34.818;2023-04-08T04:17:02;100953.47;;;26.45;36.55
23619;BME280;18207;32.078;34.818;2023-04-08T04:19:33;100964.75;;;26.45;36.61
23619;BME280;18207;32.078;34.818;2023-04-08T04:22:03;100963.94;;;26.44;36.79
23619;BME280;18207;32.078;34.818;2023-04-08T04:24:33;100970.38;;;26.45;36.49
23619;BME280;18207;32.078;34.818;2023-04-08T04:27:04;100973.19;;;26.45;36.60
23619;BME280;18207;32.078;34.818;2023-04-08T04:29:36;100977.66;;;26.46;36.58
23619;BME280;18207;32.078;34.818;2023-04-08T04:32:06;100978.03;;;26.44;36.34
23619;BME280;18207;32.078;34.818;2023-04-08T04:34:37;100976.03;;;26.45;36.46
23619;BME280;18207;32.078;34.818;2023-04-08T04:37:07;100968.41;;;26.45;36.67
23619;BME280;18207;32.078;34.818;2023-04-08T04:39:38;100986.94;;;26.46;36.66
23619;BME280;18207;32.078;34.818;2023-04-08T04:42:08;100988.94;;;26.46;36.78
23619;BME280;18207;32.078;34.818;2023-04-08T04:44:41;101002.69;;;26.47;37.02
23619;BME280;18207;32.078;34.818;2023-04-08T04:47:11;100995.81;;;26.48;37.00
23619;BME280;18207;32.078;34.818;2023-04-08T04:49:43;100991.00;;;26.49;37.01
23619;BME280;18207;32.078;34.818;2023-04-08T04:52:14;100989.84;;;26.50;37.11
23619;BME280;18207;32.078;34.818;2023-04-08T04:54:44;100985.38;;;26.49;37.08
23619;BME280;18207;32.078;34.818;2023-04-08T04:57:14;100985.38;;;26.49;36.95
23619;BME280;18207;32.078;34.818;2023-04-08T04:59:47;100989.00;;;26.49;37.18
23619;BME280;18207;32.078;34.818;2023-04-08T05:02:18;100993.00;;;26.48;37.15
23619;BME280;18207;32.078;34.818;2023-04-08T05:04:49;101003.09;;;26.49;37.48
23619;BME280;18207;32.078;34.818;2023-04-08T05:07:20;101012.38;;;26.50;37.28
23619;BME280;18207;32.078;34.818;2023-04-08T05:09:50;101016.00;;;26.50;37.39
23619;BME280;18207;32.078;34.818;2023-04-08T05:12:21;101017.66;;;26.51;37.64
23619;BME280;18207;32.078;34.818;2023-04-08T05:14:53;101020.13;;;26.53;37.86
23619;BME280;18207;32.078;34.818;2023-04-08T05:17:23;101027.81;;;26.56;37.91
23619;BME280;18207;32.078;34.818;2023-04-08T05:19:53;101036.72;;;26.58;38.00
23619;BME280;18207;32.078;34.818;2023-04-08T05:22:24;101042.81;;;26.60;37.56
23619;BME280;18207;32.078;34.818;2023-04-08T05:24:54;101043.28;;;26.62;37.77
23619;BME280;18207;32.078;34.818;2023-04-08T05:27:25;101040.88;;;26.64;37.80
23619;BME280;18207;32.078;34.818;2023-04-08T05:29:57;101050.25;;;26.68;37.93
23619;BME280;18207;32.078;34.818;2023-04-08T05:32:29;101055.50;;;26.69;38.00
23619;BME280;18207;32.078;34.818;2023-04-08T05:35:02;101077.34;;;26.72;38.16
23619;BME280;18207;32.078;34.818;2023-04-08T05:37:33;101086.25;;;26.74;37.91
23619;BME280;18207;32.078;34.818;2023-04-08T05:40:03;101091.16;;;26.77;38.27
23619;BME280;18207;32.078;34.818;2023-04-08T05:42:34;101090.41;;;26.80;38.16
23619;BME280;18207;32.078;34.818;2023-04-08T05:45:09;101089.28;;;26.84;38.13
23619;BME280;18207;32.078;34.818;2023-04-08T05:47:40;101086.91;;;26.86;38.03
23619;BME280;18207;32.078;34.818;2023-04-08T05:50:11;101087.00;;;26.90;38.27
23619;BME280;18207;32.078;34.818;2023-04-08T05:52:45;101084.63;;;26.92;38.30
23619;BME280;18207;32.078;34.818;2023-04-08T05:55:15;101078.59;;;26.93;38.25
23619;BME280;18207;32.078;34.818;2023-04-08T05:57:46;101098.44;;;26.97;38.53
23619;BME280;18207;32.078;34.818;2023-04-08T06:00:19;101083.56;;;27.00;38.28
23619;BME280;18207;32.078;34.818;2023-04-08T06:02:50;101090.84;;;27.01;38.45
23619;BME280;18207;32.078;34.818;2023-04-08T06:05:21;101098.16;;;27.02;38.61
23619;BME280;18207;32.078;34.818;2023-04-08T06:07:51;101101.06;;;27.05;38.49
23619;BME280;18207;32.078;34.818;2023-04-08T06:10:21;101091.88;;;27.08;38.59
23619;BME280;18207;32.078;34.818;2023-04-08T06:12:52;101093.94;;;27.11;38.20
23619;BME280;18207;32.078;34.818;2023-04-08T06:15:25;101107.28;;;27.14;39.05
23619;BME280;18207;32.078;34.818;2023-04-08T06:17:56;101116.22;;;27.16;38.69
23619;BME280;18207;32.078;34.818;2023-04-08T06:20:26;101118.31;;;27.19;38.58
23619;BME280;18207;32.078;34.818;2023-04-08T06:22:57;101106.25;;;27.22;38.51
23619;BME280;18207;32.078;34.818;2023-04-08T06:25:27;101106.69;;;27.24;38.59
23619;BME280;18207;32.078;34.818;2023-04-08T06:27:57;101107.94;;;27.27;38.65
23619;BME280;18207;32.078;34.818;2023-04-08T06:30:29;101104.41;;;27.30;38.64
23619;BME280;18207;32.078;34.818;2023-04-08T06:32:59;101109.69;;;27.31;38.67
23619;BME280;18207;32.078;34.818;2023-04-08T06:35:30;101099.66;;;27.34;38.59
23619;BME280;18207;32.078;34.818;2023-04-08T06:38:01;101086.00;;;27.36;38.49
23619;BME280;18207;32.078;34.818;2023-04-08T06:40:31;101081.94;;;27.37;38.83
23619;BME280;18207;32.078;34.818;2023-04-08T06:43:02;101084.03;;;27.40;38.46
23619;BME280;18207;32.078;34.818;2023-04-08T06:45:36;101088.56;;;27.44;38.50
23619;BME280;18207;32.078;34.818;2023-04-08T06:48:06;101091.81;;;27.46;38.57
23619;BME280;18207;32.078;34.818;2023-04-08T06:50:36;101104.38;;;27.49;38.34
23619;BME280;18207;32.078;34.818;2023-04-08T06:53:07;101107.25;;;27.52;38.60
23619;BME280;18207;32.078;34.818;2023-04-08T06:55:37;101097.25;;;27.55;38.67
23619;BME280;18207;32.078;34.818;2023-04-08T06:58:08;101098.13;;;27.59;38.57
23619;BME280;18207;32.078;34.818;2023-04-08T07:00:41;101094.56;;;27.62;38.55
23619;BME280;18207;32.078;34.818;2023-04-08T07:03:12;101092.22;;;27.64;38.54
23619;BME280;18207;32.078;34.818;2023-04-08T07:05:42;101095.09;;;27.67;38.44
23619;BME280;18207;32.078;34.818;2023-04-08T07:08:13;101097.19;;;27.70;38.35
23619;BME280;18207;32.078;34.818;2023-04-08T07:10:44;101097.59;;;27.72;38.43
23619;BME280;18207;32.078;34.818;2023-04-08T07:13:14;101089.19;;;27.75;38.35
23619;BME280;18207;32.078;34.818;2023-04-08T07:15:46;101094.91;;;27.79;38.12
23619;BME280;18207;32.078;34.818;2023-04-08T07:18:16;101080.41;;;27.80;38.56
23619;BME280;18207;32.078;34.818;2023-04-08T07:20:50;101071.53;;;27.82;38.14
23619;BME280;18207;32.078;34.818;2023-04-08T07:23:22;101070.00;;;27.84;38.45
23619;BME280;18207;32.078;34.818;2023-04-08T07:25:53;101057.47;;;27.85;38.25
23619;BME280;18207;32.078;34.818;2023-04-08T07:28:23;101057.13;;;27.87;38.13
23619;BME280;18207;32.078;34.818;2023-04-08T07:30:56;101052.25;;;27.87;38.21
23619;BME280;18207;32.078;34.818;2023-04-08T07:33:26;101050.28;;;27.88;38.35
23619;BME280;18207;32.078;34.818;2023-04-08T07:35:57;101053.09;;;27.88;38.05
23619;BME280;18207;32.078;34.818;2023-04-08T07:38:27;101065.66;;;27.90;38.00
23619;BME280;18207;32.078;34.818;2023-04-08T07:40:58;101061.63;;;27.91;38.07
23619;BME280;18207;32.078;34.818;2023-04-08T07:43:30;101060.06;;;27.94;37.87
23619;BME280;18207;32.078;34.818;2023-04-08T07:46:03;101052.41;;;27.94;37.87
23619;BME280;18207;32.078;34.818;2023-04-08T07:48:34;101051.19;;;27.95;37.85
23619;BME280;18207;32.078;34.818;2023-04-08T07:51:05;101043.16;;;27.97;37.66
23619;BME280;18207;32.078;34.818;2023-04-08T07:53:39;101045.63;;;27.99;37.84
23619;BME280;18207;32.078;34.818;2023-04-08T07:56:14;101031.09;;;28.00;37.58
23619;BME280;18207;32.078;34.818;2023-04-08T07:58:46;101031.53;;;28.02;37.25
23619;BME280;18207;32.078;34.818;2023-04-08T08:01:22;101028.31;;;28.04;37.39
23619;BME280;18207;32.078;34.818;2023-04-08T08:03:54;101028.78;;;28.06;37.37
23619;BME280;18207;32.078;34.818;2023-04-08T08:06:26;101037.31;;;28.09;37.14
23619;BME280;18207;32.078;34.818;2023-04-08T08:08:56;101039.00;;;28.14;37.48
23619;BME280;18207;32.078;34.818;2023-04-08T08:11:27;101031.38;;;28.18;37.32
23619;BME280;18207;32.078;34.818;2023-04-08T08:13:58;101031.91;;;28.23;37.48
23619;BME280;18207;32.078;34.818;2023-04-08T08:16:31;101027.56;;;28.29;37.15
23619;BME280;18207;32.078;34.818;2023-04-08T08:19:03;101025.59;;;28.33;37.22
23619;BME280;18207;32.078;34.818;2023-04-08T08:21:36;101031.34;;;28.40;37.57
23619;BME280;18207;32.078;34.818;2023-04-08T08:24:06;101030.22;;;28.45;37.24
23619;BME280;18207;32.078;34.818;2023-04-08T08:26:37;101021.81;;;28.52;37.03
23619;BME280;18207;32.078;34.818;2023-04-08T08:29:08;101025.13;;;28.57;36.96
23619;BME280;18207;32.078;34.818;2023-04-08T08:31:40;101018.31;;;28.62;37.30
23619;BME280;18207;32.078;34.818;2023-04-08T08:34:11;101021.22;;;28.68;37.44
23619;BME280;18207;32.078;34.818;2023-04-08T08:36:41;101019.31;;;28.76;37.23
23619;BME280;18207;32.078;34.818;2023-04-08T08:39:11;101017.44;;;28.83;36.96
23619;BME280;18207;32.078;34.818;2023-04-08T08:41:41;101016.72;;;28.90;37.11
23619;BME280;18207;32.078;34.818;2023-04-08T08:44:14;101009.91;;;28.94;36.93
23619;BME280;18207;32.078;34.818;2023-04-08T08:46:47;101003.50;;;29.01;36.72
23619;BME280;18207;32.078;34.818;2023-04-08T08:49:18;100995.84;;;29.05;36.53
23619;BME280;18207;32.078;34.818;2023-04-08T08:51:49;101006.84;;;29.10;36.40
23619;BME280;18207;32.078;34.818;2023-04-08T08:54:21;101004.84;;;29.14;36.54
23619;BME280;18207;32.078;34.818;2023-04-08T08:56:51;100996.81;;;29.19;36.65
23619;BME280;18207;32.078;34.818;2023-04-08T08:59:22;100990.00;;;29.24;36.69
23619;BME280;18207;32.078;34.818;2023-04-08T09:01:54;100988.44;;;29.26;36.52
23619;BME280;18207;32.078;34.818;2023-04-08T09:04:25;100991.28;;;29.30;36.39
23619;BME280;18207;32.078;34.818;2023-04-08T09:07:09;100992.94;;;29.34;36.55
23619;BME280;18207;32.078;34.818;2023-04-08T09:09:48;100999.47;;;29.38;36.10
23619;BME280;18207;32.078;34.818;2023-04-08T09:12:19;100992.66;;;29.43;36.09
23619;BME280;18207;32.078;34.818;2023-04-08T09:14:50;100991.47;;;29.47;35.96
23619;BME280;18207;32.078;34.818;2023-04-08T09:17:34;100983.44;;;29.52;35.55
23619;BME280;18207;32.078;34.818;2023-04-08T09:20:08;100979.03;;;29.55;35.66
23619;BME280;18207;32.078;34.818;2023-04-08T09:22:57;100985.53;;;29.59;35.99
23619;BME280;18207;32.078;34.818;2023-04-08T09:25:30;100980.72;;;29.63;35.94
23619;BME280;18207;32.078;34.818;2023-04-08T09:28:01;100970.59;;;29.65;35.67
23619;BME280;18207;32.078;34.818;2023-04-08T09:30:32;100969.44;;;29.70;35.69
23619;BME280;18207;32.078;34.818;2023-04-08T09:33:04;100963.41;;;29.75;35.74
23619;BME280;18207;32.078;34.818;2023-04-08T09:35:35;100960.59;;;29.78;35.57
23619;BME280;18207;32.078;34.818;2023-04-08T09:38:05;100964.66;;;29.81;35.43
23619;BME280;18207;32.078;34.818;2023-04-08T09:40:37;100957.38;;;29.83;35.58
23619;BME280;18207;32.078;34.818;2023-04-08T09:43:11;100953.38;;;29.88;35.51
23619;BME280;18207;32.078;34.818;2023-04-08T09:45:44;100942.47;;;29.90;35.51
23619;BME280;18207;32.078;34.818;2023-04-08T09:48:23;100952.19;;;29.92;35.48
23619;BME280;18207;32.078;34.818;2023-04-08T09:50:58;100938.47;;;29.94;35.52
23619;BME280;18207;32.078;34.818;2023-04-08T09:53:36;100937.28;;;29.95;35.24
23619;BME280;18207;32.078;34.818;2023-04-08T09:56:11;100932.41;;;29.96;35.27
23619;BME280;18207;32.078;34.818;2023-04-08T09:58:52;100932.81;;;29.98;35.26
23619;BME280;18207;32.078;34.818;2023-04-08T10:01:36;100930.81;;;29.98;35.48
23619;BME280;18207;32.078;34.818;2023-04-08T10:04:14;100919.06;;;30.00;35.46
23619;BME280;18207;32.078;34.818;2023-04-08T10:06:56;100924.34;;;30.01;35.39
23619;BME280;18207;32.078;34.818;2023-04-08T10:09:27;100926.78;;;30.03;35.67
23619;BME280;18207;32.078;34.818;2023-04-08T10:12:01;100925.59;;;30.04;35.56
23619;BME280;18207;32.078;34.818;2023-04-08T10:14:33;100926.81;;;30.06;35.76
23619;BME280;18207;32.078;34.818;2023-04-08T10:17:26;100916.69;;;30.09;35.44
23619;BME280;18207;32.078;34.818;2023-04-08T10:19:59;100912.22;;;30.08;36.00
23619;BME280;18207;32.078;34.818;2023-04-08T10:22:46;100915.91;;;30.12;35.88
23619;BME280;18207;32.078;34.818;2023-04-08T10:25:45;100897.69;;;30.13;35.92
23619;BME280;18207;32.078;34.818;2023-04-08T10:28:25;100901.75;;;30.15;35.64
23619;BME280;18207;32.078;34.818;2023-04-08T10:30:57;100896.50;;;30.17;35.93
23619;BME280;18207;32.078;34.818;2023-04-08T10:33:33;100889.22;;;30.20;36.15
23619;BME280;18207;32.078;34.818;2023-04-08T10:36:12;100892.06;;;30.23;36.23
23619;BME280;18207;32.078;34.818;2023-04-08T10:38:42;100894.13;;;30.26;36.08
23619;BME280;18207;32.078;34.818;2023-04-08T10:41:23;100883.19;;;30.28;36.26
23619;BME280;18207;32.078;34.818;2023-04-08T10:43:54;100877.09;;;30.30;35.96
23619;BME280;18207;32.078;34.818;2023-04-08T10:46:27;100869.81;;;30.32;35.94
23619;BME280;18207;32.078;34.818;2023-04-08T10:49:00;100868.59;;;30.33;35.93
23619;BME280;18207;32.078;34.818;2023-04-08T10:51:32;100865.41;;;30.35;36.15
23619;BME280;18207;32.078;34.818;2023-04-08T10:54:06;100864.16;;;30.36;36.45
23619;BME280;18207;32.078;34.818;2023-04-08T10:56:44;100847.13;;;30.36;36.08
23619;BME280;18207;32.078;34.818;2023-04-08T10:59:16;100854.44;;;30.37;36.22
23619;BME280;18207;32.078;34.818;2023-04-08T11:01:47;100846.34;;;30.39;35.98
23619;BME280;18207;32.078;34.818;2023-04-08T11:04:18;100850.81;;;30.40;36.20
23619;BME280;18207;32.078;34.818;2023-04-08T11:06:50;100856.06;;;30.41;36.25
23619;BME280;18207;32.078;34.818;2023-04-08T11:09:21;100856.50;;;30.43;36.09
23619;BME280;18207;32.078;34.818;2023-04-08T11:11:53;100862.16;;;30.43;36.17
23619;BME280;18207;32.078;34.818;2023-04-08T11:14:25;100854.47;;;30.43;36.14
23619;BME280;18207;32.078;34.818;2023-04-08T11:16:56;100850.44;;;30.44;36.28
23619;BME280;18207;32.078;34.818;2023-04-08T11:19:28;100843.53;;;30.45;36.03
23619;BME280;18207;32.078;34.818;2023-04-08T11:21:59;100845.16;;;30.46;36.10
23619;BME280;18207;32.078;34.818;2023-04-08T11:24:29;100837.47;;;30.47;36.41
23619;BME280;18207;32.078;34.818;2023-04-08T11:27:02;100827.38;;;30.49;36.32
23619;BME280;18207;32.078;34.818;2023-04-08T11:29:34;100821.28;;;30.51;36.57
23619;BME280;18207;32.078;34.818;2023-04-08T11:32:05;100826.16;;;30.54;36.75
23619;BME280;18207;32.078;34.818;2023-04-08T11:34:39;100822.53;;;30.57;36.63
23619;BME280;18207;32.078;34.818;2023-04-08T11:37:10;100818.88;;;30.56;36.67
23619;BME280;18207;32.078;34.818;2023-04-08T11:39:43;100833.06;;;30.60;36.59
23619;BME280;18207;32.078;34.818;2023-04-08T11:42:29;100827.78;;;30.62;36.93
23619;BME280;18207;32.078;34.818;2023-04-08T11:45:00;100811.59;;;30.62;36.55
23619;BME280;18207;32.078;34.818;2023-04-08T11:47:31;100826.19;;;30.64;36.61
23619;BME280;18207;32.078;34.818;2023-04-08T11:50:03;100820.50;;;30.64;36.73
23619;BME280;18207;32.078;34.818;2023-04-08T11:52:45;100831.47;;;30.66;36.60
23619;BME280;18207;32.078;34.818;2023-04-08T11:55:23;100831.47;;;30.66;36.94
23619;BME280;18207;32.078;34.818;2023-04-08T11:58:01;100832.69;;;30.65;36.83
23619;BME280;18207;32.078;34.818;2023-04-08T12:00:33;100824.56;;;30.63;36.94
23619;BME280;18207;32.078;34.818;2023-04-08T12:03:05;100828.63;;;30.62;36.51
23619;BME280;18207;32.078;34.818;2023-04-08T12:05:36;100822.94;;;30.62;36.74
23619;BME280;18207;32.078;34.818;2023-04-08T12:08:06;100822.13;;;30.62;36.89
23619;BME280;18207;32.078;34.818;2023-04-08T12:10:36;100814.44;;;30.62;36.64
23619;BME280;18207;32.078;34.818;2023-04-08T12:13:09;100807.56;;;30.63;36.81
23619;BME280;18207;32.078;34.818;2023-04-08T12:15:39;100800.63;;;30.64;36.57
23619;BME280;18207;32.078;34.818;2023-04-08T12:18:09;100795.78;;;30.65;36.85
23619;BME280;18207;32.078;34.818;2023-04-08T12:20:39;100798.63;;;30.65;36.83
23619;BME280;18207;32.078;34.818;2023-04-08T12:23:09;100793.75;;;30.65;36.84
23619;BME280;18207;32.078;34.818;2023-04-08T12:25:39;100784.44;;;30.65;36.76
23619;BME280;18207;32.078;34.818;2023-04-08T12:28:12;100781.59;;;30.65;36.63
23619;BME280;18207;32.078;34.818;2023-04-08T12:30:42;100776.34;;;30.63;36.86
23619;BME280;18207;32.078;34.818;2023-04-08T12:33:13;100782.00;;;30.63;36.71
23619;BME280;18207;32.078;34.818;2023-04-08T12:35:44;100778.75;;;30.61;36.96
23619;BME280;18207;32.078;34.818;2023-04-08T12:38:15;100776.31;;;30.60;36.60
23619;BME280;18207;32.078;34.818;2023-04-08T12:40:46;100775.91;;;30.58;36.56
23619;BME280;18207;32.078;34.818;2023-04-08T12:43:19;100785.66;;;30.57;37.00
23619;BME280;18207;32.078;34.818;2023-04-08T12:45:50;100773.47;;;30.56;36.78
23619;BME280;18207;32.078;34.818;2023-04-08T12:48:21;100769.00;;;30.55;36.57
23619;BME280;18207;32.078;34.818;2023-04-08T12:50:51;100771.03;;;30.55;36.34
23619;BME280;18207;32.078;34.818;2023-04-08T12:53:22;100764.94;;;30.53;36.36
23619;BME280;18207;32.078;34.818;2023-04-08T12:55:52;100766.16;;;30.52;36.83
23619;BME280;18207;32.078;34.818;2023-04-08T12:58:26;100757.66;;;30.52;36.88
23619;BME280;18207;32.078;34.818;2023-04-08T13:00:56;100756.03;;;30.51;36.77
23619;BME280;18207;32.078;34.818;2023-04-08T13:03:26;100758.06;;;30.50;36.31
23619;BME280;18207;32.078;34.818;2023-04-08T13:05:59;100745.09;;;30.49;36.60